Time;durP1;ratioP1;P1;durP2;ratioP2;P2;SDS_P1;SDS_P2;PMS_P1;PMS_P2;Temp;Humidity;BMP_temperature;BMP_pressure;BME280_temperature;BME280_humidity;BME280_pressure;Samples;Min_cycle;Max_cycle;Signal;HPM_P1;HPM_P2
2021/01/28 00:01:07;;;;;;;6.13;3.60;;;2.10;99.90;;;4.38;100.00;97857.34;5093738;28;20235;-70
2021/01/28 00:03:33;;;;;;;5.43;3.33;;;2.00;99.90;;;4.49;100.00;97857.00;5094273;28;20209;-69
2021/01/28 00:06:01;;;;;;;5.50;3.37;;;2.10;99.90;;;4.54;100.00;97859.97;5094644;28;20205;-71
2021/01/28 00:08:28;;;;;;;5.93;3.43;;;2.10;99.90;;;4.48;100.00;97854.50;5094402;28;20224;-70
2021/01/28 00:10:54;;;;;;;7.63;3.50;;;2.10;99.90;;;4.39;100.00;97855.50;5094447;28;20202;-71
2021/01/28 00:13:22;;;;;;;6.10;3.10;;;2.10;99.90;;;4.60;100.00;97848.72;5091472;28;20805;-69
2021/01/28 00:15:48;;;;;;;5.97;3.47;;;2.10;99.90;;;4.52;100.00;97850.56;5093798;28;20217;-69
2021/01/28 00:18:15;;;;;;;4.47;2.90;;;2.10;99.90;;;4.46;100.00;97835.34;5094048;28;20212;-69
2021/01/28 00:20:46;;;;;;;6.33;3.37;;;2.10;99.90;;;4.58;100.00;97837.47;5093886;28;20728;-69
2021/01/28 00:23:14;;;;;;;5.63;3.40;;;2.10;99.90;;;4.40;100.00;97842.13;5094295;28;20202;-71
2021/01/28 00:25:41;;;;;;;6.27;3.13;;;2.10;99.90;;;4.38;100.00;97835.38;5094354;28;20196;-71
2021/01/28 00:28:11;;;;;;;5.63;3.37;;;2.10;99.90;;;4.49;100.00;97830.56;5093547;28;20224;-71
2021/01/28 00:30:42;;;;;;;5.07;2.83;;;2.10;99.90;;;4.47;100.00;97837.81;5094088;28;20224;-72
2021/01/28 00:33:11;;;;;;;5.23;2.90;;;2.10;99.90;;;4.42;100.00;97828.78;5090462;28;20203;-68
2021/01/28 00:35:40;;;;;;;4.73;2.53;;;2.10;99.90;;;4.47;100.00;97823.81;5094028;28;20212;-72
2021/01/28 00:38:11;;;;;;;4.70;2.60;;;2.10;99.90;;;4.60;100.00;97824.94;5093780;28;20655;-69
2021/01/28 00:40:38;;;;;;;3.97;2.80;;;2.20;99.90;;;4.28;100.00;97830.28;5087565;28;20231;-74
2021/01/28 00:43:05;;;;;;;3.90;2.40;;;2.10;99.90;;;4.43;100.00;97825.94;5093903;28;20269;-71
2021/01/28 00:45:33;;;;;;;6.03;2.83;;;2.10;99.90;;;4.57;100.00;97817.34;5085332;28;20598;-71
2021/01/28 00:48:02;;;;;;;4.07;2.27;;;2.20;99.90;;;4.51;100.00;97812.72;5093722;28;20529;-71
2021/01/28 00:50:32;;;;;;;4.93;2.40;;;2.30;99.90;;;4.56;100.00;97809.56;5093499;28;20222;-71
2021/01/28 00:52:58;;;;;;;3.90;2.33;;;2.30;99.90;;;4.54;100.00;97798.34;5093459;28;20564;-71
2021/01/28 00:55:25;;;;;;;3.50;2.00;;;2.30;99.90;;;4.54;100.00;97806.28;5085823;28;20207;-71
2021/01/28 00:57:52;;;;;;;3.50;2.33;;;2.30;99.90;;;4.59;100.00;97804.78;5093571;28;20208;-70
2021/01/28 01:00:24;;;;;;;4.73;2.57;;;2.30;99.90;;;4.70;100.00;97812.38;5092865;28;20225;-70
2021/01/28 01:02:51;;;;;;;5.40;2.20;;;2.40;99.90;;;4.73;100.00;97803.28;5091442;28;20206;-70
2021/01/28 01:05:21;;;;;;;3.70;2.10;;;2.30;99.90;;;4.70;100.00;97787.75;5095208;28;20277;-69
2021/01/28 01:07:49;;;;;;;3.43;2.10;;;2.40;99.90;;;4.71;100.00;97792.03;5096254;28;20188;-69
2021/01/28 01:10:32;;;;;;;3.17;2.03;;;2.40;99.90;;;4.86;100.00;97782.41;5087253;28;20251;-69
2021/01/28 01:12:59;;;;;;;3.03;2.20;;;2.40;99.90;;;4.82;100.00;97778.47;5092928;28;20201;-69
2021/01/28 01:15:25;;;;;;;3.60;2.00;;;2.40;99.90;;;4.81;100.00;97782.09;5092619;28;20210;-69
2021/01/28 01:17:52;;;;;;;3.63;2.20;;;2.40;99.90;;;4.73;100.00;97777.66;5092508;28;20201;-69
2021/01/28 01:20:22;;;;;;;2.87;1.77;;;2.40;99.90;;;4.75;100.00;97782.78;5088952;28;20226;-69
2021/01/28 01:22:48;;;;;;;3.93;1.67;;;2.40;99.90;;;4.65;100.00;97772.41;5092864;28;20198;-69
2021/01/28 01:25:17;;;;;;;3.83;2.00;;;2.40;99.90;;;4.79;100.00;97776.16;5095910;28;20194;-69
2021/01/28 01:27:44;;;;;;;3.10;1.90;;;2.40;99.90;;;4.65;100.00;97785.63;5092734;28;20204;-69
2021/01/28 01:30:13;;;;;;;2.60;1.63;;;2.40;99.90;;;4.78;100.00;97783.25;5092915;28;20213;-69
2021/01/28 01:32:40;;;;;;;3.97;2.00;;;2.50;99.90;;;4.73;100.00;97788.22;5090229;28;20205;-69
2021/01/28 01:35:08;;;;;;;5.03;2.17;;;2.40;99.90;;;4.71;100.00;97784.94;5092459;28;20245;-69
2021/01/28 01:37:35;;;;;;;3.10;1.70;;;2.50;99.90;;;4.76;100.00;97774.66;5090184;28;20209;-69
2021/01/28 01:40:03;;;;;;;2.43;1.70;;;2.50;99.90;;;4.74;100.00;97771.38;5083878;28;20232;-69
2021/01/28 01:42:31;;;;;;;2.97;2.13;;;2.50;99.90;;;4.78;100.00;97769.22;5092390;28;20202;-69
2021/01/28 01:44:58;;;;;;;2.07;1.50;;;2.50;99.90;;;4.82;100.00;97759.97;5092298;28;20209;-69
2021/01/28 01:47:38;;;;;;;3.67;1.77;;;2.50;99.90;;;4.87;100.00;97760.28;5091814;28;20205;-69
2021/01/28 01:50:17;;;;;;;2.87;1.70;;;2.50;99.90;;;4.88;100.00;97759.28;5092569;28;20597;-69
2021/01/28 01:52:44;;;;;;;2.00;1.57;;;2.50;99.90;;;4.80;100.00;97757.50;5092178;28;20203;-69
2021/01/28 01:55:11;;;;;;;2.87;1.70;;;2.50;99.90;;;4.84;100.00;97742.94;5092089;28;20209;-69
2021/01/28 01:57:39;;;;;;;3.97;1.90;;;2.60;99.90;;;4.82;100.00;97739.63;5092125;28;20207;-69
2021/01/28 02:00:10;;;;;;;2.27;1.50;;;2.60;99.90;;;4.92;100.00;97736.78;5092024;28;21032;-69
2021/01/28 02:02:40;;;;;;;2.83;1.67;;;2.60;99.90;;;4.85;100.00;97719.94;5092145;28;20246;-69
2021/01/28 02:05:15;;;;;;;2.10;1.67;;;2.60;99.90;;;4.91;100.00;97717.44;5092042;28;20198;-69
2021/01/28 02:07:42;;;;;;;2.83;1.80;;;2.60;99.90;;;4.94;100.00;97714.47;5092331;28;20188;-69
2021/01/28 02:10:14;;;;;;;2.83;1.70;;;2.60;99.90;;;4.89;100.00;97708.88;5091975;28;20209;-70
2021/01/28 02:12:41;;;;;;;2.30;1.47;;;2.70;99.90;;;5.06;100.00;97704.31;5092318;28;20215;-69
2021/01/28 02:15:10;;;;;;;2.53;1.67;;;2.70;99.90;;;4.94;100.00;97703.91;5091749;28;20701;-69
2021/01/28 02:17:37;;;;;;;2.97;1.60;;;2.70;99.90;;;4.97;100.00;97708.81;5091946;28;20225;-70
2021/01/28 02:20:55;;;;;;;2.57;1.50;;;2.70;99.90;;;4.99;100.00;97700.72;5091486;28;20786;-69
2021/01/28 02:23:39;;;;;;;4.23;1.90;;;2.70;99.90;;;4.93;100.00;97688.19;5079531;28;20205;-69
2021/01/28 02:26:07;;;;;;;2.73;1.60;;;2.70;99.90;;;4.97;100.00;97689.50;5091622;28;20252;-69
2021/01/28 02:28:34;;;;;;;2.27;1.57;;;2.70;99.90;;;4.99;100.00;97693.63;5091569;28;20271;-69
2021/01/28 02:31:02;;;;;;;4.77;1.80;;;2.70;99.90;;;5.08;100.00;97689.09;5090579;28;20197;-70
2021/01/28 02:33:42;;;;;;;2.30;1.53;;;2.70;99.90;;;5.12;100.00;97674.53;5094116;28;20673;-69
2021/01/28 02:36:09;;;;;;;2.53;1.63;;;2.80;99.90;;;5.11;100.00;97673.72;5091703;28;20650;-71
2021/01/28 02:38:36;;;;;;;2.13;1.67;;;2.90;99.90;;;5.12;100.00;97666.59;5088930;28;20202;-69
2021/01/28 02:41:04;;;;;;;2.40;1.40;;;2.90;99.90;;;5.12;100.00;97662.13;5091228;28;20210;-69
2021/01/28 02:43:32;;;;;;;2.33;1.40;;;2.90;99.90;;;5.22;100.00;97660.06;5091843;28;20217;-69
2021/01/28 02:46:08;;;;;;;1.87;1.20;;;3.00;99.90;;;5.21;100.00;97661.06;5083500;28;20209;-69
2021/01/28 02:48:35;;;;;;;2.10;1.10;;;3.00;99.90;;;5.24;100.00;97651.97;5091340;28;20863;-69
2021/01/28 02:51:02;;;;;;;2.43;1.30;;;3.00;99.90;;;5.32;100.00;97651.88;5091658;28;20266;-69
2021/01/28 02:53:37;;;;;;;2.80;1.20;;;3.00;99.90;;;5.29;100.00;97658.34;5091565;28;20205;-69
2021/01/28 02:56:05;;;;;;;1.83;1.10;;;3.00;99.90;;;5.29;100.00;97657.56;5091235;28;20226;-69
2021/01/28 02:58:32;;;;;;;4.40;1.27;;;3.10;99.90;;;5.28;100.00;97659.38;5091971;28;20202;-69
2021/01/28 03:00:59;;;;;;;2.10;1.20;;;3.10;99.90;;;5.29;100.00;97654.91;5091501;28;20204;-69
2021/01/28 03:03:26;;;;;;;1.90;1.20;;;3.10;99.90;;;5.35;100.00;97649.75;5091230;28;20673;-71
2021/01/28 03:05:53;;;;;;;1.23;0.97;;;3.10;99.90;;;5.28;100.00;97637.41;5091621;28;20547;-69
2021/01/28 03:08:21;;;;;;;1.70;1.30;;;3.10;99.90;;;5.40;100.00;97638.63;5090799;28;20234;-69
2021/01/28 03:10:48;;;;;;;1.03;0.90;;;3.10;99.90;;;5.34;100.00;97631.41;5090987;28;20670;-69
2021/01/28 03:13:14;;;;;;;3.13;1.40;;;3.10;99.90;;;5.37;100.00;97631.03;5085181;28;20204;-69
2021/01/28 03:15:42;;;;;;;1.13;0.80;;;3.20;99.90;;;5.38;100.00;97614.97;5091746;28;20202;-69
2021/01/28 03:18:09;;;;;;;1.93;1.30;;;3.20;99.90;;;5.44;100.00;97608.97;5091682;28;20215;-69
2021/01/28 03:20:37;;;;;;;1.53;0.90;;;3.20;99.90;;;5.48;100.00;97620.84;5091648;28;20229;-69
2021/01/28 03:23:03;;;;;;;2.07;1.20;;;3.20;99.90;;;5.44;100.00;97611.59;5091081;28;20623;-69
2021/01/28 03:25:30;;;;;;;1.90;1.07;;;3.20;99.90;;;5.41;100.00;97611.97;5091490;28;20199;-70
2021/01/28 03:27:59;;;;;;;1.70;0.97;;;3.20;99.90;;;5.40;100.00;97609.50;5091031;28;20681;-69
2021/01/28 03:30:30;;;;;;;1.63;0.90;;;3.20;99.90;;;5.49;100.00;97611.91;5091474;28;20227;-69
2021/01/28 03:32:59;;;;;;;1.30;1.00;;;3.20;99.90;;;5.55;100.00;97616.50;5091202;28;20198;-70
2021/01/28 03:35:26;;;;;;;2.80;1.30;;;3.20;99.90;;;5.55;100.00;97603.25;5091608;28;20195;-70
2021/01/28 03:37:53;;;;;;;5.33;1.10;;;3.30;99.90;;;5.60;100.00;97613.31;5091401;28;20738;-70
2021/01/28 03:40:22;;;;;;;1.00;0.90;;;3.20;99.90;;;5.38;100.00;97604.38;5091732;28;20722;-69
2021/01/28 03:42:49;;;;;;;1.97;1.17;;;3.20;99.90;;;5.37;100.00;97607.22;5094582;28;20203;-69
2021/01/28 03:45:17;;;;;;;1.10;0.87;;;3.20;99.90;;;5.50;100.00;97596.84;5088015;28;20199;-70
2021/01/28 03:47:43;;;;;;;0.80;0.70;;;3.30;99.90;;;5.53;100.00;97589.38;5094751;28;20198;-69
2021/01/28 03:50:16;;;;;;;2.50;1.23;;;3.30;99.90;;;5.56;100.00;97585.53;5095351;28;20223;-69
2021/01/28 03:52:42;;;;;;;1.67;0.90;;;3.30;99.90;;;5.53;100.00;97577.97;5098467;28;20206;-69
2021/01/28 03:55:10;;;;;;;1.93;1.10;;;3.30;99.90;;;5.70;100.00;97566.22;5094402;28;20198;-70
2021/01/28 03:57:37;;;;;;;1.47;0.67;;;3.30;99.90;;;5.52;100.00;97565.72;5094828;28;20209;-71
2021/01/28 04:00:08;;;;;;;1.87;0.63;;;3.30;99.90;;;5.72;100.00;97556.25;5094858;28;20229;-69
2021/01/28 04:02:35;;;;;;;1.23;0.90;;;3.40;99.90;;;5.80;100.00;97542.97;5094352;28;20187;-69
2021/01/28 04:05:01;;;;;;;3.43;0.80;;;3.40;99.90;;;5.77;100.00;97538.00;5094597;28;20575;-69
2021/01/28 04:07:29;;;;;;;2.40;1.27;;;3.40;99.90;;;5.70;100.00;97543.22;5094147;28;20655;-69
2021/01/28 04:09:55;;;;;;;1.60;1.20;;;3.40;99.90;;;5.64;100.00;97536.00;5093914;28;20237;-70
2021/01/28 04:12:22;;;;;;;2.27;1.10;;;3.40;99.90;;;5.57;100.00;97529.78;5093977;28;20204;-69
2021/01/28 04:14:48;;;;;;;2.60;1.67;;;3.30;99.90;;;5.71;100.00;97520.22;5094094;28;20206;-69
2021/01/28 04:17:15;;;;;;;1.63;1.30;;;3.30;99.90;;;5.61;100.00;97517.84;5094175;28;20197;-68
2021/01/28 04:19:41;;;;;;;2.90;1.57;;;3.20;99.90;;;5.65;100.00;97505.06;5093678;28;20754;-70
2021/01/28 04:22:08;;;;;;;2.10;1.50;;;3.30;99.90;;;5.74;100.00;97503.97;5093700;28;20233;-71
2021/01/28 04:24:36;;;;;;;3.07;1.83;;;3.20;99.90;;;5.69;100.00;97499.22;5094041;28;20663;-68
2021/01/28 04:27:03;;;;;;;3.93;2.00;;;3.20;99.90;;;5.68;100.00;97492.28;5093966;28;20209;-71
2021/01/28 04:29:30;;;;;;;3.33;2.03;;;3.20;99.90;;;5.63;100.00;97477.97;5093766;28;20228;-71
2021/01/28 04:31:56;;;;;;;3.13;1.67;;;3.20;99.90;;;5.64;100.00;97475.13;5094076;28;20607;-71
2021/01/28 04:34:23;;;;;;;4.13;2.10;;;3.20;99.90;;;5.60;100.00;97478.31;5094885;28;20210;-70
2021/01/28 04:36:49;;;;;;;4.07;1.87;;;3.20;99.90;;;5.43;100.00;97469.72;5098369;28;20207;-71
2021/01/28 04:39:16;;;;;;;4.17;2.10;;;3.20;99.90;;;5.30;100.00;97458.16;5093733;28;20761;-72
2021/01/28 04:41:44;;;;;;;5.87;2.47;;;3.10;99.90;;;5.30;100.00;97452.84;5093647;28;20574;-71
2021/01/28 04:44:12;;;;;;;5.50;2.57;;;3.10;99.90;;;5.34;100.00;97447.00;5093885;28;20260;-67
2021/01/28 04:46:44;;;;;;;5.27;2.47;;;3.20;99.90;;;5.43;100.00;97447.75;5092616;28;20615;-68
2021/01/28 04:49:14;;;;;;;4.20;2.50;;;3.10;99.90;;;5.51;100.00;97445.84;5092483;28;20233;-73
2021/01/28 04:51:43;;;;;;;5.57;3.20;;;3.10;99.90;;;5.60;100.00;97443.91;5088868;28;20206;-70
2021/01/28 04:54:24;;;;;;;5.00;2.53;;;3.20;99.90;;;5.53;100.00;97445.66;5093015;28;20215;-70
2021/01/28 04:56:53;;;;;;;5.47;3.07;;;3.10;99.90;;;5.39;100.00;97441.19;5093488;28;20207;-70
2021/01/28 04:59:25;;;;;;;6.20;3.30;;;3.20;99.90;;;5.47;100.00;97441.91;5093354;28;20218;-70
2021/01/28 05:01:52;;;;;;;6.13;3.00;;;3.20;99.90;;;5.50;100.00;97433.63;5093413;28;20190;-70
2021/01/28 05:04:20;;;;;;;6.03;3.33;;;3.20;99.90;;;5.67;100.00;97431.56;5093036;28;20703;-73
2021/01/28 05:06:51;;;;;;;5.53;2.70;;;3.20;99.90;;;5.67;100.00;97419.19;5093185;28;20206;-70
2021/01/28 05:09:18;;;;;;;5.63;3.17;;;3.30;99.90;;;5.62;100.00;97410.13;5093492;28;20219;-70
2021/01/28 05:11:55;;;;;;;6.77;3.10;;;3.30;99.90;;;5.73;100.00;97394.59;5093033;28;20256;-70
2021/01/28 05:14:25;;;;;;;5.87;3.17;;;3.30;99.90;;;5.62;100.00;97391.59;5086223;28;20195;-71
2021/01/28 05:16:55;;;;;;;5.00;2.73;;;3.20;99.90;;;5.46;100.00;97394.47;5092823;28;20191;-70
2021/01/28 05:19:38;;;;;;;5.30;2.60;;;3.30;99.90;;;5.57;100.00;97381.59;5089947;28;20233;-72
2021/01/28 05:22:20;;;;;;;6.03;3.27;;;3.20;99.90;;;5.64;100.00;97386.97;5092505;28;20718;-70
2021/01/28 05:24:49;;;;;;;5.47;2.97;;;3.30;99.90;;;5.40;100.00;97379.31;5093148;28;20200;-70
2021/01/28 05:27:30;;;;;;;6.23;2.90;;;3.20;99.90;;;5.40;100.00;97371.41;5089067;28;20200;-70
2021/01/28 05:30:00;;;;;;;5.53;2.83;;;3.20;99.90;;;5.57;100.00;97375.47;5092833;28;20739;-68
2021/01/28 05:32:40;;;;;;;4.87;2.80;;;3.20;99.90;;;5.51;100.00;97363.81;5092449;28;20204;-75
2021/01/28 05:35:25;;;;;;;5.03;3.10;;;3.20;99.90;;;5.59;100.00;97360.25;5091610;28;21520;-70
2021/01/28 05:38:08;;;;;;;5.93;3.30;;;3.20;99.90;;;5.55;100.00;97356.31;5092745;28;20199;-72
2021/01/28 05:40:35;;;;;;;6.87;3.67;;;3.10;99.90;;;5.51;100.00;97350.59;5092940;28;20580;-70
2021/01/28 05:43:21;;;;;;;6.03;3.27;;;3.10;99.90;;;5.30;100.00;97342.59;5092229;28;20203;-71
2021/01/28 05:45:47;;;;;;;6.33;3.40;;;3.10;99.90;;;5.56;100.00;97344.72;5092724;28;20540;-74
2021/01/28 05:48:24;;;;;;;7.03;3.13;;;3.10;99.90;;;5.54;100.00;97339.59;5087117;28;20298;-71
2021/01/28 05:51:06;;;;;;;6.43;3.40;;;3.10;99.90;;;5.48;100.00;97334.25;5092437;28;20204;-70
2021/01/28 05:53:33;;;;;;;4.40;2.73;;;3.10;99.90;;;5.40;100.00;97331.72;5092267;28;20191;-70
2021/01/28 05:58:42;;;;;;;6.13;3.10;;;3.00;99.90;;;5.31;100.00;97327.53;5076340;28;20222;-72
2021/01/28 06:01:31;;;;;;;6.07;3.33;;;3.00;99.90;;;5.27;100.00;97321.78;5085321;28;20202;-72
2021/01/28 06:04:38;;;;;;;4.83;2.80;;;3.00;99.90;;;5.14;100.00;97304.94;5076039;28;20244;-72
2021/01/28 06:07:45;;;;;;;6.93;2.97;;;3.00;99.90;;;5.23;100.00;97311.78;5072587;28;20238;-70
2021/01/28 06:10:39;;;;;;;5.50;2.97;;;3.00;99.90;;;5.38;100.00;97294.84;5078564;28;20226;-72
2021/01/28 06:13:48;;;;;;;5.10;3.10;;;3.00;99.90;;;5.15;100.00;97288.88;5069652;28;20210;-73
2021/01/28 06:16:23;;;;;;;4.80;2.60;;;3.00;99.90;;;5.31;100.00;97282.56;5065050;28;20259;-72
2021/01/28 06:19:39;;;;;;;4.37;2.70;;;3.00;99.90;;;5.27;100.00;97274.16;5074477;28;20658;-71
2021/01/28 06:22:20;;;;;;;5.73;2.70;;;3.00;99.90;;;5.27;100.00;97274.16;5079440;28;20209;-72
2021/01/28 06:25:07;;;;;;;4.67;2.67;;;3.00;99.90;;;5.34;100.00;97264.47;5080708;28;20213;-72
2021/01/28 06:28:07;;;;;;;4.50;2.33;;;3.00;99.90;;;5.36;100.00;97249.25;5075444;28;20225;-72
2021/01/28 06:30:46;;;;;;;5.13;2.40;;;3.10;99.90;;;5.41;100.00;97249.50;5082822;28;20693;-71
2021/01/28 06:33:47;;;;;;;3.53;2.00;;;3.10;99.90;;;5.48;100.00;97246.94;5076096;28;20207;-72
2021/01/28 06:36:37;;;;;;;3.60;2.10;;;3.10;99.90;;;5.23;100.00;97235.06;5068795;28;20206;-73
2021/01/28 06:39:25;;;;;;;4.90;2.50;;;3.20;99.90;;;5.65;100.00;97235.94;5079618;28;20458;-75
2021/01/28 06:42:19;;;;;;;3.80;2.10;;;3.20;99.90;;;5.52;100.00;97234.94;5074123;28;20293;-74
2021/01/28 06:44:51;;;;;;;3.73;1.90;;;3.30;99.90;;;5.65;100.00;97230.63;5072587;28;20206;-74
2021/01/28 06:47:22;;;;;;;6.47;2.60;;;3.30;99.90;;;5.55;100.00;97224.00;5067988;28;20585;-76
2021/01/28 06:50:00;;;;;;;4.83;1.97;;;3.20;99.90;;;5.63;100.00;97222.06;5083276;28;20316;-76
2021/01/28 06:52:45;;;;;;;4.37;2.40;;;3.30;99.90;;;5.74;100.00;97208.31;5087515;28;20202;-79
2021/01/28 06:55:30;;;;;;;6.13;2.40;;;3.30;99.90;;;5.71;100.00;97211.34;5088309;28;20190;-78
2021/01/28 06:58:39;;;;;;;3.60;2.20;;;3.40;99.90;;;5.57;100.00;97191.06;5085525;28;20262;-77
2021/01/28 07:01:15;;;;;;;4.17;2.60;;;3.30;99.90;;;5.63;100.00;97200.88;5079491;28;20210;-76
2021/01/28 07:04:05;;;;;;;5.73;3.20;;;3.30;99.90;;;5.58;100.00;97194.53;5085488;28;20200;-80
2021/01/28 07:06:40;;;;;;;5.87;2.90;;;3.30;99.90;;;5.58;100.00;97199.81;5076406;28;20283;-79
2021/01/28 07:09:21;;;;;;;4.50;2.57;;;3.30;99.90;;;5.41;100.00;97201.91;5082279;28;20223;-75
2021/01/28 07:12:05;;;;;;;6.67;3.27;;;3.30;99.90;;;5.58;100.00;97197.19;5080375;28;20202;-78
2021/01/28 07:14:32;;;;;;;5.07;2.77;;;3.30;99.90;;;5.73;100.00;97197.94;5073081;28;20206;-71
2021/01/28 07:17:07;;;;;;;5.43;2.50;;;3.30;99.90;;;5.60;100.00;97192.50;5078974;28;20568;-81
2021/01/28 07:19:40;;;;;;;8.43;3.87;;;3.30;99.90;;;5.59;100.00;97183.72;5069104;28;20199;-77
2021/01/28 07:22:29;;;;;;;6.70;3.20;;;3.40;99.90;;;5.53;100.00;97181.06;5076605;28;20582;-77
2021/01/28 07:25:02;;;;;;;4.67;2.60;;;3.30;99.90;;;5.60;100.00;97177.47;5075833;28;20206;-74
2021/01/28 07:27:56;;;;;;;6.20;3.00;;;3.30;99.90;;;5.69;100.00;97173.66;5082375;28;20318;-74
2021/01/28 07:30:42;;;;;;;6.47;3.43;;;3.30;99.90;;;5.38;100.00;97172.34;5073134;28;20225;-74
2021/01/28 07:33:36;;;;;;;6.40;3.57;;;3.30;99.90;;;5.62;100.00;97166.66;5074548;28;20392;-77
2021/01/28 07:36:40;;;;;;;4.90;2.60;;;3.30;99.90;;;5.68;100.00;97150.84;5079232;28;20232;-76
2021/01/28 07:39:36;;;;;;;7.10;3.33;;;3.30;99.90;;;5.70;100.00;97143.53;5084332;28;20200;-75
2021/01/28 07:42:07;;;;;;;6.07;2.93;;;3.30;99.90;;;5.70;100.00;97146.19;5070590;28;20210;-75
2021/01/28 07:44:47;;;;;;;7.17;3.10;;;3.30;99.90;;;5.59;100.00;97141.38;5074744;28;20255;-78
2021/01/28 07:48:01;;;;;;;8.23;2.83;;;3.30;99.90;;;5.56;100.00;97136.50;5074424;28;20219;-75
2021/01/28 07:50:37;;;;;;;7.27;2.77;;;3.40;99.90;;;5.65;100.00;97129.22;5089025;28;20217;-75
2021/01/28 07:53:43;;;;;;;14.23;3.07;;;3.40;99.90;;;5.83;100.00;97127.78;5084355;28;20211;-76
2021/01/28 07:56:47;;;;;;;5.97;2.23;;;3.40;99.90;;;5.70;100.00;97119.72;5081883;28;20211;-74
2021/01/28 07:59:25;;;;;;;7.77;2.67;;;3.40;99.90;;;5.80;100.00;97106.19;5064889;28;20194;-76
2021/01/28 08:01:58;;;;;;;6.80;2.20;;;3.40;99.90;;;5.72;100.00;97116.88;5068745;28;20218;-76
2021/01/28 08:04:34;;;;;;;3.70;2.27;;;3.40;99.90;;;5.67;100.00;97106.88;5073787;28;20662;-76
2021/01/28 08:07:06;;;;;;;3.20;1.70;;;3.50;99.90;;;5.83;100.00;97103.16;5080333;28;20315;-73
2021/01/28 08:09:46;;;;;;;3.10;2.00;;;3.50;99.90;;;5.92;100.00;97096.66;5073700;28;20222;-73
2021/01/28 08:12:13;;;;;;;5.47;2.00;;;3.50;99.90;;;5.88;100.00;97088.31;5080296;28;20254;-73
2021/01/28 08:14:44;;;;;;;2.97;1.80;;;3.60;99.90;;;5.94;100.00;97084.88;5088646;28;20205;-73
2021/01/28 08:17:13;;;;;;;3.87;2.10;;;3.50;99.90;;;5.99;100.00;97084.31;5073758;28;20582;-73
2021/01/28 08:19:39;;;;;;;4.00;2.20;;;3.60;99.90;;;5.77;100.00;97080.88;5075099;28;20656;-73
2021/01/28 08:22:12;;;;;;;4.37;1.90;;;3.50;99.90;;;6.04;100.00;97072.09;5091753;28;20210;-73
2021/01/28 08:24:39;;;;;;;2.47;1.67;;;3.60;99.90;;;6.16;100.00;97064.44;5091007;28;20251;-77
2021/01/28 08:27:18;;;;;;;2.23;1.70;;;3.60;99.90;;;6.06;100.00;97066.63;5080072;28;20235;-75
2021/01/28 08:29:45;;;;;;;2.63;1.63;;;3.60;99.90;;;6.11;100.00;97059.72;5088193;28;20222;-72
2021/01/28 08:32:27;;;;;;;2.10;1.37;;;3.70;99.90;;;5.91;100.00;97050.03;5069789;28;20214;-75
2021/01/28 08:34:58;;;;;;;3.80;1.53;;;3.70;99.90;;;6.19;100.00;97040.22;5070985;28;20208;-74
2021/01/28 08:37:25;;;;;;;2.33;1.83;;;3.80;99.90;;;5.93;100.00;97034.75;5077488;28;20781;-73
2021/01/28 08:39:54;;;;;;;4.57;1.93;;;3.80;99.90;;;6.15;100.00;97026.53;5081579;28;20549;-76
2021/01/28 08:42:28;;;;;;;2.73;1.60;;;3.80;99.90;;;6.28;100.00;97018.63;5081215;28;20207;-74
2021/01/28 08:45:20;;;;;;;2.17;1.20;;;3.80;99.90;;;6.19;100.00;97019.81;5066194;28;20218;-76
2021/01/28 08:47:59;;;;;;;2.70;1.57;;;3.90;99.90;;;6.22;100.00;97008.00;5068620;28;20229;-71
2021/01/28 08:50:28;;;;;;;2.13;1.10;;;3.90;99.90;;;6.32;100.00;96995.22;5078471;28;20229;-74
2021/01/28 08:53:02;;;;;;;6.63;1.50;;;3.90;99.90;;;6.23;100.00;96991.94;5078710;28;20258;-76
2021/01/28 08:55:34;;;;;;;1.70;1.30;;;3.90;99.90;;;6.29;100.00;96985.81;5067730;28;20207;-74
2021/01/28 08:58:09;;;;;;;1.60;1.10;;;4.00;99.90;;;6.32;100.00;96980.16;5069098;28;20280;-75
2021/01/28 09:00:42;;;;;;;1.63;0.90;;;4.00;99.90;;;6.46;100.00;96979.16;5063230;28;20563;-75
2021/01/28 09:03:11;;;;;;;2.20;1.30;;;4.10;99.90;;;6.45;100.00;96974.88;5070359;28;20215;-75
2021/01/28 09:05:38;;;;;;;1.97;0.90;;;4.10;99.90;;;6.47;100.00;96972.84;5068323;28;20678;-74
2021/01/28 09:08:22;;;;;;;6.70;1.33;;;4.10;99.90;;;6.50;100.00;96968.97;5069310;28;20232;-75
2021/01/28 09:10:49;;;;;;;4.93;1.10;;;4.20;99.90;;;6.48;100.00;96963.03;5070435;28;20702;-74
2021/01/28 09:13:21;;;;;;;2.37;1.30;;;4.20;99.90;;;6.33;100.00;96959.75;5066778;28;20212;-76
2021/01/28 09:15:49;;;;;;;1.77;1.10;;;4.20;99.90;;;6.44;100.00;96957.34;5071999;28;20209;-73
2021/01/28 09:18:27;;;;;;;2.80;1.20;;;4.20;99.90;;;6.54;100.00;96947.16;5069129;28;20228;-77
2021/01/28 09:20:54;;;;;;;4.23;1.40;;;4.30;99.90;;;6.54;100.00;96933.13;5076964;28;20218;-74
2021/01/28 09:23:21;;;;;;;3.40;1.60;;;4.30;99.90;;;6.74;100.00;96941.88;5075084;28;20210;-73
2021/01/28 09:26:20;;;;;;;2.90;1.03;;;4.30;99.90;;;6.68;100.00;96934.75;5069081;28;20207;-74
2021/01/28 09:28:46;;;;;;;1.50;0.90;;;4.40;99.90;;;6.56;100.00;96931.06;5069857;28;20215;-77
2021/01/28 09:31:26;;;;;;;2.67;0.90;;;4.40;99.90;;;6.71;100.00;96927.19;5073492;28;20850;-77
2021/01/28 09:33:53;;;;;;;1.23;0.87;;;4.50;99.90;;;6.74;100.00;96918.84;5075650;28;20211;-76
2021/01/28 09:36:23;;;;;;;3.20;1.23;;;4.50;99.90;;;6.83;100.00;96920.28;5073799;28;20269;-74
2021/01/28 09:39:12;;;;;;;1.90;1.10;;;4.50;99.90;;;6.86;100.00;96911.09;5085654;28;20211;-76
2021/01/28 09:41:43;;;;;;;3.10;1.13;;;4.50;99.90;;;6.80;100.00;96901.31;5075632;28;20201;-74
2021/01/28 09:44:33;;;;;;;1.07;0.80;;;4.50;99.90;;;6.76;100.00;96892.94;5075786;28;20200;-74
2021/01/28 09:47:12;;;;;;;1.40;1.00;;;4.50;99.90;;;6.95;100.00;96889.47;5067779;28;20228;-74
2021/01/28 09:49:39;;;;;;;1.43;1.00;;;4.50;99.90;;;6.83;100.00;96891.13;5074342;28;20256;-75
2021/01/28 09:52:06;;;;;;;1.90;1.20;;;4.50;99.90;;;6.87;100.00;96886.22;5080693;28;20216;-74
2021/01/28 09:54:34;;;;;;;1.53;1.23;;;4.70;99.90;;;6.88;100.00;96887.84;5079238;28;20217;-76
2021/01/28 09:57:01;;;;;;;3.23;1.00;;;4.60;99.90;;;6.95;100.00;96894.78;5062803;28;20229;-74
2021/01/28 09:59:29;;;;;;;1.50;0.87;;;4.70;99.90;;;7.10;100.00;96908.63;5067978;28;20232;-77
2021/01/28 10:01:57;;;;;;;0.87;0.70;;;4.70;99.90;;;7.20;100.00;96901.06;5074486;28;20217;-74
2021/01/28 10:04:23;;;;;;;1.13;1.00;;;4.80;99.90;;;7.17;100.00;96914.78;5067543;28;20208;-74
2021/01/28 10:06:50;;;;;;;1.03;0.63;;;4.90;99.90;;;7.26;100.00;96900.25;5061551;28;20227;-75
2021/01/28 10:09:16;;;;;;;0.77;0.67;;;5.00;99.90;;;7.18;100.00;96878.41;5072270;28;20224;-75
2021/01/28 10:11:43;;;;;;;0.73;0.50;;;;;;;7.38;100.00;96882.69;5067010;28;20252;-74
2021/01/28 10:14:11;;;;;;;1.10;0.70;;;;;;;7.40;100.00;96883.28;5070888;28;20718;-74
2021/01/28 10:16:37;;;;;;;0.77;0.70;;;;;;;7.43;100.00;96890.81;5073832;28;20232;-77
2021/01/28 10:19:04;;;;;;;1.40;0.50;;;;;;;7.54;100.00;96895.50;5065440;28;20257;-75
2021/01/28 10:21:31;;;;;;;2.10;0.90;;;;;;;7.38;100.00;96885.31;5070991;28;20212;-74
2021/01/28 10:23:58;;;;;;;1.77;0.90;;;;;;;7.54;100.00;96884.03;5070421;28;20748;-74
2021/01/28 10:26:25;;;;;;;2.27;0.80;;;;;;;7.27;100.00;96885.16;5064726;28;20232;-75
2021/01/28 10:28:51;;;;;;;2.90;0.93;;;;;;;7.50;100.00;96885.47;5068279;28;20279;-75
2021/01/28 10:31:19;;;;;;;0.77;0.73;;;;;;;7.50;100.00;96880.16;5077399;28;20203;-76
2021/01/28 10:33:47;;;;;;;4.10;0.90;;;;;;;7.50;100.00;96888.97;5068902;28;20209;-73
2021/01/28 10:36:14;;;;;;;4.40;1.00;;;;;;;7.61;100.00;96883.00;5065366;28;20224;-74
2021/01/28 10:38:41;;;;;;;2.93;0.90;;;;;;;7.59;100.00;96884.22;5064111;28;20289;-74
2021/01/28 10:41:07;;;;;;;4.17;1.10;;;;;;;7.52;100.00;96876.28;5065909;28;20291;-73
2021/01/28 10:43:34;;;;;;;2.83;1.10;;;;;;;7.60;100.00;96873.41;5068073;28;20215;-74
2021/01/28 10:46:01;;;;;;;2.77;1.17;;;;;;;7.43;100.00;96863.47;5070059;28;20215;-76
2021/01/28 10:48:29;;;;;;;1.67;0.90;;;;;;;7.50;100.00;96854.44;5067617;28;20207;-73
2021/01/28 10:50:56;;;;;;;3.50;0.93;;;;;;;7.54;100.00;96857.50;5072876;28;20238;-74
2021/01/28 10:53:23;;;;;;;3.33;1.40;;;;;;;7.61;100.00;96845.81;5069094;28;20232;-75
2021/01/28 10:55:50;;;;;;;1.73;1.17;;;;;;;7.57;100.00;96849.13;5073731;28;20304;-74
2021/01/28 10:58:17;;;;;;;1.87;1.00;;;;;;;7.71;100.00;96838.22;5070267;28;20311;-76